SLC weather

Salt Lake City International Airport
Salt Lake City, Utah, United States

Public forecast

Using degrees Fahrenheit for public forecast. Weather courtesy of forecast.io.

METAR (pilot weather report)

Retrieved 2017/05/25 00:25 UTC (35 minutes ago):

KSLC 250025Z COR 18005KT 10SM TS FEW049CB FEW075 BKN110 OVC160 28/03 A2953 RMK AO2 TSB25 OCNL LTGICCG VC SW VIRGA ALQDS TS VC SW MOV NE CB DSNT NE-S-W VCSH S-SW T02830028

TAF (pilot weather forecast)

Forecast is more than 12 hours old.

Retrieved 2017/05/24 00:27 UTC (1 day ago):

TAF KSLC 242325Z 2500/2606 23011KT P6SM VCTS SCT080CB BKN100 FM250300 33011KT P6SM SCT080 BKN120 FM260300 16007KT P6SM BKN120